메인 페이지
METAR-TAF:

METAR-TAF

공항 :

라지브 간디 국제공항

하이데라바드, 인도

위도: 17-14-00N, 경도: 078-26-00E, 고도: 617m

현재 날씨관측

예보는 21분 전, 21:30시(UTC)에 발표되었습니다.
5kt
온도 32°C
습도 43%
기압 1008 hPa
시정: 6000m
고도 2000ft 상공 구름 보통

METAR: VOHS 282130Z 26005KT 6000 SCT020 32/18 Q1008 NOSIG

시각: 03:21 (21:51 UTC)

예보

예보는 1 시간 51분 전, 20:00시(UTC)에 발표되었습니다.
예보 대상 시간: 28일 21시부터 29일 06시까지 (UTC)
남동5kt
시정: 5000m
박무, 연무
일시적
29일 00시부터 29일 03시까지 (UTC)
서북서5kt
고도 1500ft 상공 구름 보통
고도 10000ft 상공 구름 보통
전환 중
29일 04시부터 29일 06시까지 (UTC)
북북서12kt
시정: 6000m
고도 1500ft 상공 구름 조금

TAF: VOHS 282000Z 2821/2906 14005KT 5000 BR HZ NSC TEMPO 2900/2903 30005KT SCT015 SCT100 BECMG 2904/2906 33012KT 6000 FEW015

4,000개 이상의 공항 관측 자료 및 예보 (METAR 및 TAF 보고).

지도상에서 검색 가능한 기상관측소가 노란 점과 빨간 점으로 표시되어 있습니다.

기상관측소 명을 보려면 표시 위로 마우스를 이동하세요.

날씨 관측과 예보를 보려면 클릭하세요.

지도 변경 : 확대하려면 엑스 표시가 있는 녹색 버튼, 축소하려면 빼기 표시가 있는 녹색 버튼, 다음 페이지의 지도를 보려면 녹색 화살표를 클릭하세요.


METAR-TAF: